Fyrbyggaren — SDJP — position and weather

sailwx.info

Track history (hours):
 
Tides and Currents Weather Stations Pressure Air Temp Water Temp Dewpoint Dewpoint Depression Visibility Wind Speed Wind Dir Waves Ship Positions

Fyrbyggaren

Last reported at 2016-May-23 06:17 UTC. Time now 2016-May-31 23:46 UTC.
Position N 58°48' E 017°40'.
Warning: this ship's position is 8 days out of date.

Length 42 m.

Type: Pollution control. MMSI: 265289000.

Date/timePositionNaut miles runAvg speedWind from/ knotsBaromVisibWave heightAir tempDewpointWater temp
2016-May-23 06:17N 58°48' E 017°40'0 0.1
2016-May-23 03:25N 58°48' E 017°40'0 0.0
2016-May-23 01:28N 58°48' E 017°40'0 0.0
2016-May-23 00:31N 58°48' E 017°40'0 0.0
2016-May-22 23:13N 58°48' E 017°40'0 0.0
2016-May-22 22:16N 58°48' E 017°40'4 0.4
2016-May-22 12:26N 58°50' E 017°33'  
2016-May-17 17:10N 55°34' E 016°03'19 6.8
2016-May-17 14:23N 55°15' E 015°59'1011.2
2016-May-17 13:32N 55°10' E 015°45'1111.1
2016-May-17 12:34N 55°04' E 015°29'1110.7
2016-May-17 11:34N 54°59' E 015°13'1110.5
2016-May-17 10:33N 54°58' E 014°55'10 9.8
2016-May-17 09:34N 55°02' E 014°40'3 3.3
2016-May-17 08:33N 55°06' E 014°42'0 0.0
2016-May-17 07:33N 55°06' E 014°42'0 0.0
2016-May-17 06:33N 55°06' E 014°42'0 0.0
2016-May-17 05:30N 55°06' E 014°42'0 0.0
2016-May-17 04:33N 55°06' E 014°42'0 0.0
2016-May-17 03:33N 55°06' E 014°42'0 0.0
2016-May-17 02:30N 55°06' E 014°42'0 0.0
2016-May-17 01:33N 55°06' E 014°42'0 0.0
2016-May-17 00:33N 55°06' E 014°42'0 0.0
2016-May-16 23:33N 55°06' E 014°42'0 0.0
2016-May-16 22:33N 55°06' E 014°42'0 0.0
2016-May-16 21:33N 55°06' E 014°42'0 0.0
2016-May-16 20:33N 55°06' E 014°42'5 5.4
2016-May-16 19:34N 55°04' E 014°33'1110.9
2016-May-16 18:33N 55°02' E 014°14'6 5.7
2016-May-16 17:33N 55°01' E 014°04'7 6.5
2016-May-16 16:33N 55°03' E 013°54'9 9.3
2016-May-16 15:33N 55°08' E 013°40'19 6.3
2016-May-16 12:33N 55°12' E 013°08'5 5.5
2016-May-16 11:33N 55°17' E 013°10'5 5.0
2016-May-16 10:33N 55°17' E 013°19'4 3.5
2016-May-16 09:33N 55°13' E 013°16'5 5.0
2016-May-16 08:31N 55°13' E 013°25'3 3.3
2016-May-16 07:33N 55°15' E 013°30'5 4.8
2016-May-16 06:33N 55°14' E 013°38'8 8.5
2016-May-16 05:33N 55°14' E 013°53'1010.2
2016-May-16 04:33N 55°14' E 014°11'10 9.6
2016-May-16 03:33N 55°20' E 014°24'1010.1
2016-May-16 02:33N 55°30' E 014°24'3 3.4
2016-May-16 01:32N 55°33' E 014°21'0 0.0
2016-May-16 00:32N 55°33' E 014°21'0 0.0
2016-May-15 23:32N 55°33' E 014°21'0 0.0
2016-May-15 22:26N 55°33' E 014°21'0 0.0
2016-May-15 21:32N 55°33' E 014°21'0 0.0
2016-May-15 20:32N 55°33' E 014°21'4 3.9
2016-May-15 19:34N 55°34' E 014°28'1110.5
2016-May-15 18:33N 55°36' E 014°46'5 4.6
2016-May-15 17:33N 55°37' E 014°54'1110.9
2016-May-15 16:33N 55°40' E 015°13'  
Track history (hours):
 
Tides and Currents Weather Stations Pressure Air Temp Water Temp Dewpoint Dewpoint Depression Visibility Wind Speed Wind Dir Waves Ship Positions

Fyrbyggaren

Last reported at 2016-May-23 06:17 UTC. Time now 2016-May-31 23:46 UTC.
Position N 58°48' E 017°40'.
Warning: this ship's position is 8 days out of date.

Length 42 m.

Type: Pollution control. MMSI: 265289000.

Date/timePositionNaut miles runAvg speedWind from/ knotsBaromVisibWave heightAir tempDewpointWater temp
2016-May-23 06:17N 58°48' E 017°40'0 0.1
2016-May-23 03:25N 58°48' E 017°40'0 0.0
2016-May-23 01:28N 58°48' E 017°40'0 0.0
2016-May-23 00:31N 58°48' E 017°40'0 0.0
2016-May-22 23:13N 58°48' E 017°40'0 0.0
2016-May-22 22:16N 58°48' E 017°40'4 0.4
2016-May-22 12:26N 58°50' E 017°33'  
2016-May-17 17:10N 55°34' E 016°03'19 6.8
2016-May-17 14:23N 55°15' E 015°59'1011.2
2016-May-17 13:32N 55°10' E 015°45'1111.1
2016-May-17 12:34N 55°04' E 015°29'1110.7
2016-May-17 11:34N 54°59' E 015°13'1110.5
2016-May-17 10:33N 54°58' E 014°55'10 9.8
2016-May-17 09:34N 55°02' E 014°40'3 3.3
2016-May-17 08:33N 55°06' E 014°42'0 0.0
2016-May-17 07:33N 55°06' E 014°42'0 0.0
2016-May-17 06:33N 55°06' E 014°42'0 0.0
2016-May-17 05:30N 55°06' E 014°42'0 0.0
2016-May-17 04:33N 55°06' E 014°42'0 0.0
2016-May-17 03:33N 55°06' E 014°42'0 0.0
2016-May-17 02:30N 55°06' E 014°42'0 0.0
2016-May-17 01:33N 55°06' E 014°42'0 0.0
2016-May-17 00:33N 55°06' E 014°42'0 0.0
2016-May-16 23:33N 55°06' E 014°42'0 0.0
2016-May-16 22:33N 55°06' E 014°42'0 0.0
2016-May-16 21:33N 55°06' E 014°42'0 0.0
2016-May-16 20:33N 55°06' E 014°42'5 5.4
2016-May-16 19:34N 55°04' E 014°33'1110.9
2016-May-16 18:33N 55°02' E 014°14'6 5.7
2016-May-16 17:33N 55°01' E 014°04'7 6.5
2016-May-16 16:33N 55°03' E 013°54'9 9.3
2016-May-16 15:33N 55°08' E 013°40'19 6.3
2016-May-16 12:33N 55°12' E 013°08'5 5.5
2016-May-16 11:33N 55°17' E 013°10'5 5.0
2016-May-16 10:33N 55°17' E 013°19'4 3.5
2016-May-16 09:33N 55°13' E 013°16'5 5.0
2016-May-16 08:31N 55°13' E 013°25'3 3.3
2016-May-16 07:33N 55°15' E 013°30'5 4.8
2016-May-16 06:33N 55°14' E 013°38'8 8.5
2016-May-16 05:33N 55°14' E 013°53'1010.2
2016-May-16 04:33N 55°14' E 014°11'10 9.6
2016-May-16 03:33N 55°20' E 014°24'1010.1
2016-May-16 02:33N 55°30' E 014°24'3 3.4
2016-May-16 01:32N 55°33' E 014°21'0 0.0
2016-May-16 00:32N 55°33' E 014°21'0 0.0
2016-May-15 23:32N 55°33' E 014°21'0 0.0
2016-May-15 22:26N 55°33' E 014°21'0 0.0
2016-May-15 21:32N 55°33' E 014°21'0 0.0
2016-May-15 20:32N 55°33' E 014°21'4 3.9
2016-May-15 19:34N 55°34' E 014°28'1110.5
2016-May-15 18:33N 55°36' E 014°46'5 4.6
2016-May-15 17:33N 55°37' E 014°54'1110.9
2016-May-15 16:33N 55°40' E 015°13'  

Dump ship's entire track history